createdAt,value
2019-02-09T00:04:25.539Z,100367.38
2019-02-09T00:06:54.111Z,100355.42
2019-02-09T00:09:22.722Z,100358.35
2019-02-09T00:11:51.356Z,100343.76
2019-02-09T00:14:19.973Z,100340.55
2019-02-09T00:16:48.568Z,100338.46
2019-02-09T00:19:17.125Z,100337.52
2019-02-09T00:21:46.132Z,100325.94
2019-02-09T00:24:14.676Z,100325.39
2019-02-09T00:26:43.630Z,100321.48
2019-02-09T00:29:12.194Z,100322.43
2019-02-09T00:31:40.765Z,100318.56
2019-02-09T00:34:09.549Z,100300.54
2019-02-09T00:36:38.113Z,100300.54
2019-02-09T00:39:08.021Z,100304.83
2019-02-09T00:41:36.597Z,100308.20
2019-02-09T00:44:05.569Z,100295.81
2019-02-09T00:46:34.236Z,100296.22
2019-02-09T00:49:02.842Z,100281.06
2019-02-09T00:51:31.424Z,100283.58
2019-02-09T00:54:02.020Z,100279.17
2019-02-09T00:56:32.357Z,100281.30
2019-02-09T00:59:01.007Z,100281.30
2019-02-09T01:01:29.717Z,100271.94
2019-02-09T01:03:58.262Z,100273.78
2019-02-09T01:06:26.909Z,100264.72
2019-02-09T01:08:55.458Z,100271.55
2019-02-09T01:11:24.051Z,100257.42
2019-02-09T01:13:52.603Z,100257.97
2019-02-09T01:16:21.183Z,100255.44
2019-02-09T01:18:50.053Z,100257.23
2019-02-09T01:21:18.737Z,100243.95
2019-02-09T01:23:47.288Z,100238.69
2019-02-09T01:26:16.222Z,100240.02
2019-02-09T01:28:44.801Z,100233.92
2019-02-09T01:31:13.383Z,100233.92
2019-02-09T01:33:42.042Z,100232.19
2019-02-09T01:36:10.755Z,100226.53
2019-02-09T01:38:39.312Z,100221.14
2019-02-09T01:41:07.894Z,100217.52
2019-02-09T01:43:36.476Z,100202.05
2019-02-09T01:46:05.250Z,100202.06
2019-02-09T01:48:33.822Z,100203.30
2019-02-09T01:51:05.378Z,100196.36
2019-02-09T01:53:34.314Z,100187.78
2019-02-09T01:56:02.952Z,100177.08
2019-02-09T01:58:31.599Z,100174.01
2019-02-09T02:01:00.569Z,100165.65
2019-02-09T02:03:30.840Z,100164.48
2019-02-09T02:06:00.754Z,100158.99
2019-02-09T02:08:31.223Z,100150.02
2019-02-09T02:10:59.800Z,100144.38
2019-02-09T02:13:28.777Z,100139.72
2019-02-09T02:15:57.312Z,100131.03
2019-02-09T02:18:26.301Z,100126.91
2019-02-09T02:20:54.920Z,100119.50
2019-02-09T02:23:23.493Z,100117.20
2019-02-09T02:25:52.363Z,100103.91
2019-02-09T02:28:20.942Z,100110.16
2019-02-09T02:30:49.908Z,100088.69
2019-02-09T02:33:18.484Z,100082.64
2019-02-09T02:35:47.435Z,100082.64
2019-02-09T02:38:16.019Z,100081.03
2019-02-09T02:40:44.579Z,100084.00
2019-02-09T02:43:13.146Z,100074.27
2019-02-09T02:45:41.710Z,100063.51
2019-02-09T02:48:10.349Z,100063.51
2019-02-09T02:50:38.904Z,100060.14
2019-02-09T02:53:10.583Z,100052.48
2019-02-09T02:55:39.145Z,100041.80
2019-02-09T02:58:07.715Z,100044.03
2019-02-09T03:00:36.335Z,100039.00
2019-02-09T03:03:05.545Z,100039.00
2019-02-09T03:05:34.101Z,100035.14
2019-02-09T03:08:02.859Z,100033.59
2019-02-09T03:10:31.514Z,100033.59
2019-02-09T03:13:03.195Z,100036.17
2019-02-09T03:15:33.175Z,100034.69
2019-02-09T03:18:03.273Z,100026.97
2019-02-09T03:20:35.288Z,100018.28
2019-02-09T03:23:03.935Z,100023.10
2019-02-09T03:25:36.361Z,100010.11
2019-02-09T03:28:05.402Z,100014.64
2019-02-09T03:30:47.187Z,100011.29
2019-02-09T03:33:04.711Z,100005.98
2019-02-09T03:35:35.929Z,99994.27
2019-02-09T03:38:04.920Z,99977.41
2019-02-09T03:40:33.469Z,99981.72
2019-02-09T03:43:02.030Z,99965.08
2019-02-09T03:45:51.369Z,99942.27
2019-02-09T03:48:20.272Z,99942.27
2019-02-09T03:50:48.853Z,99941.89
2019-02-09T03:53:17.413Z,99940.80
2019-02-09T03:55:45.966Z,99943.38
2019-02-09T03:58:14.546Z,99943.38
2019-02-09T04:00:43.406Z,99950.92
2019-02-09T04:03:12.224Z,99925.59
2019-02-09T04:05:40.768Z,99933.25
2019-02-09T04:08:09.890Z,99929.38
2019-02-09T04:10:38.439Z,99922.48
2019-02-09T04:13:07.004Z,99918.01
2019-02-09T04:15:35.710Z,99915.31
2019-02-09T04:18:04.422Z,99915.38
2019-02-09T04:20:33.420Z,99908.95
2019-02-09T04:23:02.061Z,99908.95
2019-02-09T04:25:32.247Z,99907.38
2019-02-09T04:28:00.807Z,99896.38
2019-02-09T04:30:33.256Z,99887.74
2019-02-09T04:33:04.868Z,99882.58
2019-02-09T04:35:33.787Z,99882.58
2019-02-09T04:38:04.185Z,99886.78
2019-02-09T04:40:33.320Z,99891.22
2019-02-09T04:43:04.865Z,99879.05
2019-02-09T04:45:33.436Z,99882.97
2019-02-09T04:48:05.006Z,99878.74
2019-02-09T04:50:33.619Z,99868.78
2019-02-09T04:53:02.177Z,99868.78
2019-02-09T04:55:32.398Z,99870.98
2019-02-09T04:58:00.951Z,99849.66
2019-02-09T05:00:33.131Z,99849.66
2019-02-09T05:03:05.088Z,99855.83
2019-02-09T05:05:33.613Z,99852.02
2019-02-09T05:08:02.166Z,99841.25
2019-02-09T05:10:32.373Z,99853.25
2019-02-09T05:13:01.276Z,99850.52
2019-02-09T05:15:32.271Z,99839.26
2019-02-09T05:18:01.115Z,99838.81
2019-02-09T05:20:29.691Z,99837.89
2019-02-09T05:22:58.305Z,99837.89
2019-02-09T05:25:26.895Z,99841.50
2019-02-09T05:27:55.439Z,99851.22
2019-02-09T05:30:28.837Z,99845.99
2019-02-09T05:32:57.820Z,99845.99
2019-02-09T05:35:26.449Z,99849.61
2019-02-09T05:37:55.176Z,99850.41
2019-02-09T05:40:27.620Z,99850.41
2019-02-09T05:42:56.443Z,99842.14
2019-02-09T05:45:27.624Z,99842.05
2019-02-09T05:47:56.353Z,99835.59
2019-02-09T05:50:24.962Z,99830.61
2019-02-09T05:52:53.581Z,99830.61
2019-02-09T05:55:22.584Z,99835.19
2019-02-09T05:57:51.125Z,99835.19
2019-02-09T06:00:32.284Z,99834.65
2019-02-09T06:03:01.136Z,99837.09
2019-02-09T06:05:29.873Z,99839.13
2019-02-09T06:07:58.832Z,99831.09
2019-02-09T06:10:27.614Z,99834.48
2019-02-09T06:12:56.625Z,99838.74
2019-02-09T06:15:29.714Z,99842.55
2019-02-09T06:17:58.441Z,99845.30
2019-02-09T06:20:31.490Z,99842.14
2019-02-09T06:23:03.212Z,99842.14
2019-02-09T06:25:33.787Z,99842.27
2019-02-09T06:28:04.379Z,99848.51
2019-02-09T06:30:33.497Z,99856.06
2019-02-09T06:33:02.493Z,99847.05
2019-02-09T06:35:34.523Z,99844.41
2019-02-09T06:38:03.358Z,99846.78
2019-02-09T06:40:32.003Z,99844.05
2019-02-09T06:43:03.838Z,99837.83
2019-02-09T06:45:35.456Z,99837.83
2019-02-09T06:48:22.267Z,99841.94
2019-02-09T06:50:51.188Z,99846.31
2019-02-09T06:53:19.827Z,99846.31
2019-02-09T06:55:48.374Z,99853.45
2019-02-09T06:58:16.936Z,99854.23
2019-02-09T07:00:45.588Z,99860.73
2019-02-09T07:03:14.602Z,99855.67
2019-02-09T07:05:43.325Z,99853.23
2019-02-09T07:08:12.036Z,99845.20
2019-02-09T07:10:40.752Z,99854.49
2019-02-09T07:13:09.373Z,99860.37
2019-02-09T07:15:38.593Z,99860.37
2019-02-09T07:21:48.120Z,99867.27
2019-02-09T07:24:16.673Z,99882.91
2019-02-09T07:26:45.264Z,99882.91
2019-02-09T07:29:13.793Z,99879.87
2019-02-09T07:31:42.357Z,99877.27
2019-02-09T07:34:10.920Z,99877.27
2019-02-09T07:36:39.554Z,99884.28
2019-02-09T07:39:09.534Z,99872.74
2019-02-09T07:41:38.163Z,99877.67
2019-02-09T07:44:06.777Z,99884.09
2019-02-09T07:46:35.355Z,99879.55
2019-02-09T07:49:03.894Z,99868.93
2019-02-09T07:51:34.370Z,99869.32
2019-02-09T07:54:02.901Z,99873.30
2019-02-09T07:56:31.465Z,99876.74
2019-02-09T07:59:02.291Z,99879.78
2019-02-09T08:01:31.245Z,99876.52
2019-02-09T08:03:59.806Z,99879.52
2019-02-09T08:06:28.377Z,99875.58
2019-02-09T08:08:56.919Z,99877.98
2019-02-09T08:11:25.559Z,99884.57
2019-02-09T08:13:54.325Z,99885.17
2019-02-09T08:16:22.878Z,99881.75
2019-02-09T08:18:54.403Z,99884.97
2019-02-09T08:21:22.966Z,99887.00
2019-02-09T08:23:51.558Z,99897.72
2019-02-09T08:26:20.581Z,99904.50
2019-02-09T08:28:49.207Z,99897.52
2019-02-09T08:31:17.780Z,99907.02
2019-02-09T08:33:46.325Z,99901.59
2019-02-09T08:36:14.963Z,99905.16
2019-02-09T08:38:43.504Z,99905.75
2019-02-09T08:41:12.072Z,99899.01
2019-02-09T08:43:40.624Z,99899.01
2019-02-09T08:46:09.328Z,99892.11
2019-02-09T08:48:37.947Z,99892.83
2019-02-09T08:51:08.935Z,99890.14
2019-02-09T08:53:37.503Z,99887.63
2019-02-09T08:56:06.272Z,99891.75
2019-02-09T08:58:34.841Z,99901.30
2019-02-09T09:01:03.838Z,99901.09
2019-02-09T09:03:33.965Z,99897.44
2019-02-09T09:06:05.717Z,99903.44
2019-02-09T09:08:34.399Z,99910.83
2019-02-09T09:11:03.016Z,99912.39
2019-02-09T09:13:33.104Z,99909.72
2019-02-09T09:16:02.025Z,99910.90
2019-02-09T09:18:32.242Z,99918.02
2019-02-09T09:21:04.237Z,99914.33
2019-02-09T09:23:32.801Z,99909.48
2019-02-09T09:26:01.354Z,99910.98
2019-02-09T09:28:32.023Z,99907.81
2019-02-09T09:31:02.279Z,99909.75
2019-02-09T09:33:30.989Z,99899.27
2019-02-09T09:35:59.624Z,99910.20
2019-02-09T09:41:56.965Z,99910.23
2019-02-09T09:44:25.545Z,99917.61
2019-02-09T09:46:54.544Z,99927.87
2019-02-09T09:49:23.094Z,99923.09
2019-02-09T09:51:54.698Z,99927.94
2019-02-09T09:54:23.621Z,99934.52
2019-02-09T09:56:54.991Z,99925.39
2019-02-09T09:59:24.035Z,99935.99
2019-02-09T10:01:54.512Z,99933.36
2019-02-09T10:04:23.074Z,99952.91
2019-02-09T10:06:51.626Z,99934.04
2019-02-09T10:09:20.203Z,99940.45
2019-02-09T10:11:48.744Z,99935.20
2019-02-09T10:14:17.307Z,99938.02
2019-02-09T10:16:45.853Z,99922.02
2019-02-09T10:19:14.429Z,99935.55
2019-02-09T10:21:42.977Z,99934.42
2019-02-09T10:24:11.626Z,99940.38
2019-02-09T10:26:40.169Z,99926.08
2019-02-09T10:29:08.739Z,99953.54
2019-02-09T10:31:37.348Z,99941.80
2019-02-09T10:34:06.327Z,99945.36
2019-02-09T10:36:34.867Z,99949.04
2019-02-09T10:39:04.008Z,99956.37
2019-02-09T10:41:35.573Z,99939.79
2019-02-09T10:44:04.679Z,99938.45
2019-02-09T10:46:33.397Z,99946.50
2019-02-09T10:49:04.735Z,99945.05
2019-02-09T10:51:33.780Z,99945.98
2019-02-09T10:54:04.167Z,99935.97
2019-02-09T10:56:32.718Z,99929.58
2019-02-09T10:59:04.130Z,99934.98
2019-02-09T11:01:33.146Z,99937.46
2019-02-09T11:04:03.224Z,99937.52
2019-02-09T11:06:34.687Z,99944.49
2019-02-09T11:09:04.716Z,99943.50
2019-02-09T11:11:33.261Z,99945.39
2019-02-09T11:14:04.937Z,99958.93
2019-02-09T11:16:33.609Z,99942.59
2019-02-09T11:19:02.186Z,99946.72
2019-02-09T11:21:30.741Z,99940.17
2019-02-09T11:23:59.725Z,99939.23
2019-02-09T11:26:28.270Z,99944.42
2019-02-09T11:28:56.825Z,99949.50
2019-02-09T11:31:25.390Z,99949.82
2019-02-09T11:33:53.957Z,99960.03
2019-02-09T11:36:22.533Z,99957.06
2019-02-09T11:38:51.077Z,99945.00
2019-02-09T11:41:20.148Z,99968.75
2019-02-09T11:43:50.139Z,99959.11
2019-02-09T11:46:18.731Z,99971.97
2019-02-09T11:48:47.279Z,99975.42
2019-02-09T11:51:15.881Z,99970.20
2019-02-09T11:53:44.427Z,99967.23
2019-02-09T11:56:13.016Z,99972.70
2019-02-09T11:58:41.906Z,99966.39
2019-02-09T12:01:10.489Z,99969.47
2019-02-09T12:03:39.063Z,99973.91
2019-02-09T12:06:07.972Z,99977.66
2019-02-09T12:08:36.516Z,99984.08
2019-02-09T12:11:05.326Z,99975.77
2019-02-09T12:13:33.891Z,99968.95
2019-02-09T12:16:02.858Z,99990.22
2019-02-09T12:18:33.416Z,99971.25
2019-02-09T12:21:05.168Z,99960.50
2019-02-09T12:23:33.721Z,99969.98
2019-02-09T12:26:04.235Z,99966.75
2019-02-09T12:28:32.787Z,99971.24
2019-02-09T12:31:04.733Z,99968.16
2019-02-09T12:33:33.338Z,99971.59
2019-02-09T12:36:04.911Z,99970.16
2019-02-09T12:38:33.454Z,99967.44
2019-02-09T12:41:02.785Z,99961.05
2019-02-09T12:43:31.934Z,99955.75
2019-02-09T12:46:00.964Z,99967.47
2019-02-09T12:48:29.605Z,99957.84
2019-02-09T12:50:58.277Z,99957.33
2019-02-09T12:53:26.822Z,99957.44
2019-02-09T12:55:55.431Z,99960.86
2019-02-09T12:58:24.055Z,99961.66
2019-02-09T13:00:52.666Z,99965.25
2019-02-09T13:03:31.038Z,99973.82
2019-02-09T13:05:56.548Z,99975.83
2019-02-09T13:08:26.711Z,99981.09
2019-02-09T13:10:55.741Z,99978.11
2019-02-09T13:13:24.448Z,99985.60
2019-02-09T13:15:53.091Z,99979.63
2019-02-09T13:18:21.952Z,99989.45
2019-02-09T13:20:50.780Z,99997.97
2019-02-09T13:23:20.174Z,99987.32
2019-02-09T13:25:48.848Z,99991.20
2019-02-09T13:28:17.410Z,99991.95
2019-02-09T13:30:46.036Z,99989.05
2019-02-09T13:33:14.601Z,100002.31
2019-02-09T13:35:43.259Z,100005.68
2019-02-09T13:38:12.004Z,100010.41
2019-02-09T13:40:41.017Z,100011.42
2019-02-09T13:43:09.672Z,100025.95
2019-02-09T13:45:44.572Z,100021.52
2019-02-09T13:48:13.286Z,100026.82
2019-02-09T13:50:41.990Z,100014.98
2019-02-09T13:53:10.675Z,100012.44
2019-02-09T13:55:39.333Z,100012.38
2019-02-09T13:58:07.973Z,100013.45
2019-02-09T14:00:37.066Z,100000.07
2019-02-09T14:03:07.488Z,100003.19
2019-02-09T14:05:36.348Z,100007.08
2019-02-09T14:08:06.151Z,100004.94
2019-02-09T14:10:34.770Z,100003.95
2019-02-09T14:13:03.482Z,100014.73
2019-02-09T14:15:36.757Z,99998.37
2019-02-09T14:18:08.469Z,100005.20
2019-02-09T14:20:37.157Z,99998.88
2019-02-09T14:23:06.527Z,100006.62
2019-02-09T14:25:35.180Z,100015.73
2019-02-09T14:28:06.827Z,100019.35
2019-02-09T14:30:41.909Z,100010.86
2019-02-09T14:33:12.451Z,100026.13
2019-02-09T14:35:42.645Z,100017.81
2019-02-09T14:38:11.616Z,100022.70
2019-02-09T14:40:40.303Z,100026.70
2019-02-09T14:43:09.809Z,100025.41
2019-02-09T14:45:40.601Z,100024.34
2019-02-09T14:48:09.536Z,100030.36
2019-02-09T14:50:38.599Z,100027.98
2019-02-09T14:53:08.615Z,100026.85
2019-02-09T14:55:39.127Z,100025.61
2019-02-09T14:58:08.645Z,100030.95
2019-02-09T15:00:48.891Z,100038.38
2019-02-09T15:03:25.691Z,100035.78
2019-02-09T15:05:48.616Z,100033.84
2019-02-09T15:08:17.267Z,100039.81
2019-02-09T15:10:46.053Z,100046.77
2019-02-09T15:13:14.857Z,100054.84
2019-02-09T15:15:46.549Z,100050.25
2019-02-09T15:18:15.422Z,100033.11
2019-02-09T15:20:56.531Z,100041.63
2019-02-09T15:23:25.109Z,100038.81
2019-02-09T15:25:53.653Z,100042.67
2019-02-09T15:28:22.216Z,100042.90
2019-02-09T15:30:51.475Z,100050.77
2019-02-09T15:33:21.153Z,100050.69
2019-02-09T15:35:50.477Z,100047.33
2019-02-09T15:38:21.116Z,100045.09
2019-02-09T15:40:52.425Z,100045.91
2019-02-09T15:43:21.623Z,100044.85
2019-02-09T15:45:50.812Z,100046.15
2019-02-09T15:48:20.356Z,100046.15
2019-02-09T15:50:49.832Z,100047.62
2019-02-09T15:53:19.028Z,100056.45
2019-02-09T15:55:48.170Z,100045.73
2019-02-09T15:58:17.491Z,100048.06
2019-02-09T16:00:46.974Z,100053.50
2019-02-09T16:03:16.400Z,100051.55
2019-02-09T16:05:53.021Z,100050.17
2019-02-09T16:08:22.201Z,100043.27
2019-02-09T16:10:51.388Z,100050.22
2019-02-09T16:13:20.187Z,100040.72
2019-02-09T16:15:49.403Z,100055.00
2019-02-09T16:18:18.536Z,100041.44
2019-02-09T16:20:47.081Z,100045.20
2019-02-09T16:23:15.658Z,100058.55
2019-02-09T16:25:44.208Z,100064.16
2019-02-09T16:28:12.782Z,100064.95
2019-02-09T16:30:41.355Z,100076.22
2019-02-09T16:33:09.943Z,100073.45
2019-02-09T16:35:39.449Z,100076.62
2019-02-09T16:38:09.217Z,100077.27
2019-02-09T16:40:41.501Z,100074.94
2019-02-09T16:43:10.272Z,100084.14
2019-02-09T16:45:40.236Z,100090.91
2019-02-09T16:48:11.136Z,100092.78
2019-02-09T16:50:39.755Z,100104.27
2019-02-09T16:53:08.369Z,100095.94
2019-02-09T16:55:37.004Z,100100.25
2019-02-09T16:58:07.071Z,100093.62
2019-02-09T17:00:38.843Z,100081.97
2019-02-09T17:03:09.438Z,100095.95
2019-02-09T17:05:38.207Z,100087.99
2019-02-09T17:08:07.107Z,100085.40
2019-02-09T17:10:35.920Z,100079.96
2019-02-09T17:13:05.628Z,100087.67
2019-02-09T17:15:34.624Z,100093.73
2019-02-09T17:18:03.271Z,100092.63
2019-02-09T17:20:32.019Z,100100.85
2019-02-09T17:23:02.206Z,100098.27
2019-02-09T17:25:31.217Z,100094.65
2019-02-09T17:27:59.782Z,100093.34
2019-02-09T17:30:36.313Z,100093.42
2019-02-09T17:33:05.802Z,100099.31
2019-02-09T17:35:34.727Z,100089.16
2019-02-09T17:38:03.269Z,100090.73
2019-02-09T17:40:34.889Z,100094.41
2019-02-09T17:43:03.433Z,100100.36
2019-02-09T17:45:38.111Z,100095.97
2019-02-09T17:48:06.735Z,100101.00
2019-02-09T17:50:35.445Z,100101.16
2019-02-09T17:53:04.667Z,100114.25
2019-02-09T17:55:33.384Z,100102.83
2019-02-09T17:58:05.481Z,100114.90
2019-02-09T18:00:36.219Z,100099.32
2019-02-09T18:03:04.919Z,100123.70
2019-02-09T18:05:34.703Z,100121.66
2019-02-09T18:08:03.961Z,100121.78
2019-02-09T18:10:33.506Z,100162.42
2019-02-09T18:13:02.294Z,100191.66
2019-02-09T18:15:31.283Z,100196.84
2019-02-09T18:18:00.118Z,100208.89
2019-02-09T18:20:28.715Z,100192.19
2019-02-09T18:22:57.395Z,100199.17
2019-02-09T18:25:26.032Z,100209.84
2019-02-09T18:27:54.643Z,100197.48
2019-02-09T18:30:25.325Z,100202.23
2019-02-09T18:32:54.397Z,100205.36
2019-02-09T18:35:23.109Z,100206.36
2019-02-09T18:37:51.749Z,100199.71
2019-02-09T18:40:23.292Z,100193.97
2019-02-09T18:42:51.913Z,100195.41
2019-02-09T18:45:23.493Z,100203.19
2019-02-09T18:47:52.139Z,100199.75
2019-02-09T18:50:26.118Z,100195.48
2019-02-09T18:52:55.835Z,100191.39
2019-02-09T18:55:28.924Z,100191.39
2019-02-09T18:57:58.420Z,100192.95
2019-02-09T19:00:39.275Z,100192.05
2019-02-09T19:03:09.430Z,100192.75
2019-02-09T19:05:38.210Z,100184.73
2019-02-09T19:08:08.287Z,100189.42
2019-02-09T19:10:37.666Z,100190.86
2019-02-09T19:13:06.685Z,100190.02
2019-02-09T19:15:35.953Z,100195.59
2019-02-09T19:18:06.148Z,100186.14
2019-02-09T19:20:43.904Z,100201.22
2019-02-09T19:23:12.442Z,100198.70
2019-02-09T19:25:41.085Z,100193.63
2019-02-09T19:28:09.698Z,100198.01
2019-02-09T19:30:38.319Z,100191.28
2019-02-09T19:33:08.128Z,100201.46
2019-02-09T19:35:36.742Z,100196.06
2019-02-09T19:38:05.756Z,100196.55
2019-02-09T19:40:34.305Z,100202.09
2019-02-09T19:43:03.199Z,100203.66
2019-02-09T19:45:37.197Z,100208.17
2019-02-09T19:48:08.312Z,100210.19
2019-02-09T19:50:37.840Z,100212.95
2019-02-09T19:53:07.779Z,100213.59
2019-02-09T19:55:37.690Z,100212.98
2019-02-09T19:58:07.661Z,100209.98
2019-02-09T20:00:52.314Z,100215.38
2019-02-09T20:03:23.287Z,100214.59
2019-02-09T20:05:52.663Z,100220.37
2019-02-09T20:08:22.047Z,100227.59
2019-02-09T20:10:51.535Z,100233.96
2019-02-09T20:13:21.929Z,100234.45
2019-02-09T20:15:51.494Z,100237.00
2019-02-09T20:18:21.833Z,100247.20
2019-02-09T20:20:51.428Z,100241.12
2019-02-09T20:23:22.346Z,100255.50
2019-02-09T20:25:52.067Z,100262.00
2019-02-09T20:28:22.550Z,100263.30
2019-02-09T20:30:52.217Z,100260.70
2019-02-09T20:33:24.364Z,100257.43
2019-02-09T20:35:53.381Z,100266.63
2019-02-09T20:38:22.022Z,100274.25
2019-02-09T20:40:56.521Z,100272.40
2019-02-09T20:43:26.141Z,100267.66
2019-02-09T20:45:54.694Z,100274.83
2019-02-09T20:48:23.283Z,100272.30
2019-02-09T20:50:51.826Z,100277.96
2019-02-09T20:53:21.813Z,100269.56
2019-02-09T20:55:50.440Z,100275.66
2019-02-09T20:58:19.594Z,100284.19
2019-02-09T21:00:48.194Z,100284.09
2019-02-09T21:03:17.114Z,100298.72
2019-02-09T21:05:46.057Z,100302.45
2019-02-09T21:08:14.623Z,100302.45
2019-02-09T21:10:45.277Z,100307.24
2019-02-09T21:13:13.928Z,100311.45
2019-02-09T21:15:42.484Z,100305.94
2019-02-09T21:18:11.049Z,100308.58
2019-02-09T21:20:40.169Z,100302.80
2019-02-09T21:23:08.902Z,100297.38
2019-02-09T21:25:46.612Z,100314.34
2019-02-09T21:28:15.635Z,100318.98
2019-02-09T21:30:44.198Z,100318.23
2019-02-09T21:33:13.152Z,100309.32
2019-02-09T21:35:43.975Z,100314.86
2019-02-09T21:38:12.583Z,100309.32
2019-02-09T21:40:41.300Z,100313.19
2019-02-09T21:43:09.926Z,100316.36
2019-02-09T21:45:44.921Z,100316.13
2019-02-09T21:48:08.776Z,100317.66
2019-02-09T21:50:40.309Z,100317.88
2019-02-09T21:53:09.256Z,100320.08
2019-02-09T21:55:37.890Z,100330.91
2019-02-09T21:58:08.686Z,100322.47
2019-02-09T22:00:39.712Z,100326.22
2019-02-09T22:03:09.686Z,100323.76
2019-02-09T22:05:38.338Z,100325.43
2019-02-09T22:08:08.929Z,100321.55
2019-02-09T22:10:37.545Z,100331.29
2019-02-09T22:13:06.256Z,100331.29
2019-02-09T22:15:38.905Z,100327.04
2019-02-09T22:18:06.475Z,100337.44
2019-02-09T22:20:35.059Z,100337.44
2019-02-09T22:23:03.772Z,100318.25
2019-02-09T22:25:33.881Z,100326.02
2019-02-09T22:28:03.559Z,100326.02
2019-02-09T22:30:33.061Z,100334.78
2019-02-09T22:33:05.029Z,100327.25
2019-02-09T22:35:33.636Z,100330.72
2019-02-09T22:38:04.150Z,100328.13
2019-02-09T22:40:35.309Z,100324.19
2019-02-09T22:43:05.444Z,100336.26
2019-02-09T22:45:34.205Z,100331.84
2019-02-09T22:48:02.927Z,100336.96
2019-02-09T22:50:34.552Z,100344.30
2019-02-09T22:53:03.168Z,100339.29
2019-02-09T22:55:35.451Z,100335.28
2019-02-09T22:58:04.805Z,100338.31
2019-02-09T23:00:52.652Z,100334.23
2019-02-09T23:03:28.119Z,100349.17
2019-02-09T23:06:07.901Z,100341.13
2019-02-09T23:08:34.064Z,100347.31
2019-02-09T23:11:02.848Z,100339.33
2019-02-09T23:13:31.394Z,100358.31
2019-02-09T23:16:02.340Z,100358.31
2019-02-09T23:18:30.910Z,100352.62
2019-02-09T23:20:59.554Z,100352.62
2019-02-09T23:23:28.106Z,100350.30
2019-02-09T23:25:56.746Z,100360.95
2019-02-09T23:28:25.296Z,100358.76
2019-02-09T23:30:53.871Z,100367.35
2019-02-09T23:33:23.589Z,100367.14
2019-02-09T23:35:52.176Z,100362.55
2019-02-09T23:38:20.735Z,100366.69
2019-02-09T23:40:49.341Z,100368.83
2019-02-09T23:43:17.934Z,100360.99
2019-02-09T23:45:46.647Z,100364.50
2019-02-09T23:48:15.608Z,100355.45
2019-02-09T23:50:44.188Z,100350.58
2019-02-09T23:53:12.741Z,100361.37
2019-02-09T23:55:41.308Z,100363.21
2019-02-09T23:58:09.852Z,100374.50
